sensor_id;sensor_type;location;lat;lon;timestamp;P1;durP1;ratioP1;P2;durP2;ratioP2
20725;SDS011;10524;48.132;8.518;2022-08-25T00:02:14;8.48;;;7.78;;
20725;SDS011;10524;48.132;8.518;2022-08-25T00:04:39;8.68;;;7.78;;
20725;SDS011;10524;48.132;8.518;2022-08-25T00:07:05;9.13;;;8.25;;
20725;SDS011;10524;48.132;8.518;2022-08-25T00:09:31;8.32;;;7.47;;
20725;SDS011;10524;48.132;8.518;2022-08-25T00:11:59;9.27;;;8.32;;
20725;SDS011;10524;48.132;8.518;2022-08-25T00:14:30;9.73;;;8.60;;
20725;SDS011;10524;48.132;8.518;2022-08-25T00:16:57;9.05;;;8.15;;
20725;SDS011;10524;48.132;8.518;2022-08-25T00:19:25;10.00;;;8.23;;
20725;SDS011;10524;48.132;8.518;2022-08-25T00:21:53;9.38;;;8.38;;
20725;SDS011;10524;48.132;8.518;2022-08-25T00:24:20;8.43;;;7.53;;
20725;SDS011;10524;48.132;8.518;2022-08-25T00:26:47;8.60;;;7.10;;
20725;SDS011;10524;48.132;8.518;2022-08-25T00:29:15;8.55;;;7.75;;
20725;SDS011;10524;48.132;8.518;2022-08-25T00:31:41;8.43;;;7.63;;
20725;SDS011;10524;48.132;8.518;2022-08-25T00:34:09;7.82;;;7.03;;
20725;SDS011;10524;48.132;8.518;2022-08-25T00:39:07;9.25;;;8.35;;
20725;SDS011;10524;48.132;8.518;2022-08-25T00:41:33;8.75;;;7.93;;
20725;SDS011;10524;48.132;8.518;2022-08-25T00:44:00;9.20;;;8.30;;
20725;SDS011;10524;48.132;8.518;2022-08-25T00:46:33;8.70;;;7.90;;
20725;SDS011;10524;48.132;8.518;2022-08-25T00:49:02;9.00;;;8.10;;
20725;SDS011;10524;48.132;8.518;2022-08-25T00:51:51;8.18;;;7.47;;
20725;SDS011;10524;48.132;8.518;2022-08-25T00:54:31;8.73;;;7.68;;
20725;SDS011;10524;48.132;8.518;2022-08-25T00:57:03;8.48;;;7.68;;
20725;SDS011;10524;48.132;8.518;2022-08-25T00:59:30;8.70;;;7.90;;
20725;SDS011;10524;48.132;8.518;2022-08-25T01:01:56;9.40;;;8.50;;
20725;SDS011;10524;48.132;8.518;2022-08-25T01:04:23;8.43;;;7.63;;
20725;SDS011;10524;48.132;8.518;2022-08-25T01:06:50;9.38;;;8.40;;
20725;SDS011;10524;48.132;8.518;2022-08-25T01:09:16;9.52;;;8.52;;
20725;SDS011;10524;48.132;8.518;2022-08-25T01:11:43;9.90;;;8.90;;
20725;SDS011;10524;48.132;8.518;2022-08-25T01:14:11;9.40;;;8.50;;
20725;SDS011;10524;48.132;8.518;2022-08-25T01:16:40;9.50;;;8.60;;
20725;SDS011;10524;48.132;8.518;2022-08-25T01:19:08;9.68;;;8.60;;
20725;SDS011;10524;48.132;8.518;2022-08-25T01:21:38;9.45;;;8.18;;
20725;SDS011;10524;48.132;8.518;2022-08-25T01:24:07;8.90;;;8.00;;
20725;SDS011;10524;48.132;8.518;2022-08-25T01:26:35;9.63;;;8.00;;
20725;SDS011;10524;48.132;8.518;2022-08-25T01:29:02;8.73;;;7.85;;
20725;SDS011;10524;48.132;8.518;2022-08-25T01:31:46;11.02;;;8.48;;
20725;SDS011;10524;48.132;8.518;2022-08-25T01:34:12;8.57;;;7.78;;
20725;SDS011;10524;48.132;8.518;2022-08-25T01:36:40;8.57;;;7.65;;
20725;SDS011;10524;48.132;8.518;2022-08-25T01:39:07;9.25;;;7.95;;
20725;SDS011;10524;48.132;8.518;2022-08-25T01:41:44;8.75;;;7.95;;
20725;SDS011;10524;48.132;8.518;2022-08-25T01:44:16;8.32;;;7.63;;
20725;SDS011;10524;48.132;8.518;2022-08-25T01:46:42;8.60;;;7.55;;
20725;SDS011;10524;48.132;8.518;2022-08-25T01:49:08;9.15;;;8.25;;
20725;SDS011;10524;48.132;8.518;2022-08-25T01:51:39;9.98;;;7.78;;
20725;SDS011;10524;48.132;8.518;2022-08-25T01:54:08;8.60;;;7.57;;
20725;SDS011;10524;48.132;8.518;2022-08-25T01:56:34;9.57;;;8.68;;
20725;SDS011;10524;48.132;8.518;2022-08-25T01:59:00;9.30;;;8.43;;
20725;SDS011;10524;48.132;8.518;2022-08-25T02:01:26;9.50;;;8.07;;
20725;SDS011;10524;48.132;8.518;2022-08-25T02:03:53;9.90;;;8.75;;
20725;SDS011;10524;48.132;8.518;2022-08-25T02:06:24;10.30;;;8.43;;
20725;SDS011;10524;48.132;8.518;2022-08-25T02:08:53;9.80;;;8.88;;
20725;SDS011;10524;48.132;8.518;2022-08-25T02:11:21;10.50;;;9.48;;
20725;SDS011;10524;48.132;8.518;2022-08-25T02:13:48;9.38;;;8.40;;
20725;SDS011;10524;48.132;8.518;2022-08-25T02:16:18;9.40;;;8.40;;
20725;SDS011;10524;48.132;8.518;2022-08-25T02:18:46;8.85;;;7.90;;
20725;SDS011;10524;48.132;8.518;2022-08-25T02:21:12;9.48;;;8.57;;
20725;SDS011;10524;48.132;8.518;2022-08-25T02:23:40;9.05;;;8.15;;
20725;SDS011;10524;48.132;8.518;2022-08-25T02:26:06;10.25;;;9.25;;
20725;SDS011;10524;48.132;8.518;2022-08-25T02:28:33;10.07;;;8.73;;
20725;SDS011;10524;48.132;8.518;2022-08-25T02:31:00;10.30;;;8.57;;
20725;SDS011;10524;48.132;8.518;2022-08-25T02:33:25;9.38;;;8.43;;
20725;SDS011;10524;48.132;8.518;2022-08-25T02:35:51;10.23;;;9.18;;
20725;SDS011;10524;48.132;8.518;2022-08-25T02:38:17;9.38;;;8.27;;
20725;SDS011;10524;48.132;8.518;2022-08-25T02:40:42;9.73;;;8.73;;
20725;SDS011;10524;48.132;8.518;2022-08-25T02:43:08;10.40;;;9.00;;
20725;SDS011;10524;48.132;8.518;2022-08-25T02:45:34;9.30;;;8.40;;
20725;SDS011;10524;48.132;8.518;2022-08-25T02:48:00;10.57;;;8.82;;
20725;SDS011;10524;48.132;8.518;2022-08-25T02:50:27;8.90;;;8.00;;
20725;SDS011;10524;48.132;8.518;2022-08-25T02:52:53;9.05;;;8.15;;
20725;SDS011;10524;48.132;8.518;2022-08-25T02:55:19;9.52;;;8.60;;
20725;SDS011;10524;48.132;8.518;2022-08-25T02:57:45;9.70;;;8.80;;
20725;SDS011;10524;48.132;8.518;2022-08-25T03:00:12;8.80;;;7.90;;
20725;SDS011;10524;48.132;8.518;2022-08-25T03:02:39;9.43;;;8.52;;
20725;SDS011;10524;48.132;8.518;2022-08-25T03:05:06;9.55;;;8.40;;
20725;SDS011;10524;48.132;8.518;2022-08-25T03:07:33;11.10;;;9.40;;
20725;SDS011;10524;48.132;8.518;2022-08-25T03:10:03;10.40;;;8.90;;
20725;SDS011;10524;48.132;8.518;2022-08-25T03:12:34;9.18;;;8.27;;
20725;SDS011;10524;48.132;8.518;2022-08-25T03:15:00;8.60;;;7.80;;
20725;SDS011;10524;48.132;8.518;2022-08-25T03:17:26;10.45;;;8.93;;
20725;SDS011;10524;48.132;8.518;2022-08-25T03:19:52;10.65;;;9.45;;
20725;SDS011;10524;48.132;8.518;2022-08-25T03:22:17;10.57;;;9.57;;
20725;SDS011;10524;48.132;8.518;2022-08-25T03:24:43;10.57;;;9.50;;
20725;SDS011;10524;48.132;8.518;2022-08-25T03:27:08;10.35;;;9.25;;
20725;SDS011;10524;48.132;8.518;2022-08-25T03:29:34;9.05;;;8.18;;
20725;SDS011;10524;48.132;8.518;2022-08-25T03:32:00;10.18;;;9.07;;
20725;SDS011;10524;48.132;8.518;2022-08-25T03:34:26;10.70;;;9.60;;
20725;SDS011;10524;48.132;8.518;2022-08-25T03:36:53;11.00;;;8.85;;
20725;SDS011;10524;48.132;8.518;2022-08-25T03:39:20;8.85;;;8.00;;
20725;SDS011;10524;48.132;8.518;2022-08-25T03:41:49;10.43;;;9.32;;
20725;SDS011;10524;48.132;8.518;2022-08-25T03:44:16;11.32;;;10.15;;
20725;SDS011;10524;48.132;8.518;2022-08-25T03:46:43;12.35;;;10.10;;
20725;SDS011;10524;48.132;8.518;2022-08-25T03:49:12;11.13;;;10.02;;
20725;SDS011;10524;48.132;8.518;2022-08-25T03:51:44;12.35;;;10.27;;
20725;SDS011;10524;48.132;8.518;2022-08-25T03:54:12;11.40;;;10.30;;
20725;SDS011;10524;48.132;8.518;2022-08-25T03:56:40;10.45;;;9.35;;
20725;SDS011;10524;48.132;8.518;2022-08-25T03:59:06;11.63;;;10.43;;
20725;SDS011;10524;48.132;8.518;2022-08-25T04:01:35;10.88;;;9.68;;
20725;SDS011;10524;48.132;8.518;2022-08-25T04:04:02;10.48;;;9.48;;
20725;SDS011;10524;48.132;8.518;2022-08-25T04:06:28;10.68;;;9.57;;
20725;SDS011;10524;48.132;8.518;2022-08-25T04:08:54;10.57;;;9.48;;
20725;SDS011;10524;48.132;8.518;2022-08-25T04:11:22;10.25;;;9.25;;
20725;SDS011;10524;48.132;8.518;2022-08-25T04:13:49;10.77;;;9.68;;
20725;SDS011;10524;48.132;8.518;2022-08-25T04:16:20;11.77;;;9.38;;
20725;SDS011;10524;48.132;8.518;2022-08-25T04:18:48;11.55;;;9.10;;
20725;SDS011;10524;48.132;8.518;2022-08-25T04:21:16;10.05;;;9.05;;
20725;SDS011;10524;48.132;8.518;2022-08-25T04:23:45;10.63;;;9.50;;
20725;SDS011;10524;48.132;8.518;2022-08-25T04:26:17;10.57;;;9.48;;
20725;SDS011;10524;48.132;8.518;2022-08-25T04:28:46;9.85;;;8.38;;
20725;SDS011;10524;48.132;8.518;2022-08-25T04:31:17;10.00;;;9.00;;
20725;SDS011;10524;48.132;8.518;2022-08-25T04:33:45;9.93;;;8.77;;
20725;SDS011;10524;48.132;8.518;2022-08-25T04:36:12;10.20;;;9.02;;
20725;SDS011;10524;48.132;8.518;2022-08-25T04:38:39;10.63;;;9.52;;
20725;SDS011;10524;48.132;8.518;2022-08-25T04:41:07;11.25;;;9.85;;
20725;SDS011;10524;48.132;8.518;2022-08-25T04:43:34;11.40;;;9.90;;
20725;SDS011;10524;48.132;8.518;2022-08-25T04:46:11;11.30;;;10.10;;
20725;SDS011;10524;48.132;8.518;2022-08-25T04:48:41;11.27;;;10.07;;
20725;SDS011;10524;48.132;8.518;2022-08-25T04:51:12;10.63;;;9.57;;
20725;SDS011;10524;48.132;8.518;2022-08-25T04:53:40;12.63;;;9.48;;
20725;SDS011;10524;48.132;8.518;2022-08-25T04:56:16;9.75;;;8.82;;
20725;SDS011;10524;48.132;8.518;2022-08-25T04:58:43;8.85;;;8.05;;
20725;SDS011;10524;48.132;8.518;2022-08-25T05:01:18;10.07;;;7.78;;
20725;SDS011;10524;48.132;8.518;2022-08-25T05:03:46;7.63;;;6.93;;
20725;SDS011;10524;48.132;8.518;2022-08-25T05:06:16;7.30;;;6.60;;
20725;SDS011;10524;48.132;8.518;2022-08-25T05:08:42;6.28;;;5.68;;
20725;SDS011;10524;48.132;8.518;2022-08-25T05:11:09;7.88;;;5.43;;
20725;SDS011;10524;48.132;8.518;2022-08-25T05:13:38;6.10;;;5.10;;
20725;SDS011;10524;48.132;8.518;2022-08-25T05:16:04;5.53;;;5.03;;
20725;SDS011;10524;48.132;8.518;2022-08-25T05:18:31;6.10;;;4.65;;
20725;SDS011;10524;48.132;8.518;2022-08-25T05:21:32;5.63;;;4.80;;
20725;SDS011;10524;48.132;8.518;2022-08-25T05:26:26;6.07;;;4.57;;
20725;SDS011;10524;48.132;8.518;2022-08-25T05:28:54;5.60;;;4.57;;
20725;SDS011;10524;48.132;8.518;2022-08-25T05:31:21;5.63;;;5.00;;
20725;SDS011;10524;48.132;8.518;2022-08-25T05:33:48;5.47;;;4.20;;
20725;SDS011;10524;48.132;8.518;2022-08-25T05:36:16;3.70;;;3.40;;
20725;SDS011;10524;48.132;8.518;2022-08-25T05:38:43;3.85;;;3.55;;
20725;SDS011;10524;48.132;8.518;2022-08-25T05:41:10;4.18;;;3.78;;
20725;SDS011;10524;48.132;8.518;2022-08-25T05:43:40;4.57;;;4.10;;
20725;SDS011;10524;48.132;8.518;2022-08-25T05:46:07;4.50;;;4.00;;
20725;SDS011;10524;48.132;8.518;2022-08-25T05:48:34;7.45;;;4.20;;
20725;SDS011;10524;48.132;8.518;2022-08-25T05:51:01;5.10;;;4.30;;
20725;SDS011;10524;48.132;8.518;2022-08-25T05:53:29;4.03;;;3.63;;
20725;SDS011;10524;48.132;8.518;2022-08-25T05:55:55;4.13;;;3.60;;
20725;SDS011;10524;48.132;8.518;2022-08-25T05:58:22;3.58;;;3.28;;
20725;SDS011;10524;48.132;8.518;2022-08-25T06:00:49;3.55;;;3.10;;
20725;SDS011;10524;48.132;8.518;2022-08-25T06:03:16;3.10;;;2.80;;
20725;SDS011;10524;48.132;8.518;2022-08-25T06:05:42;4.28;;;3.25;;
20725;SDS011;10524;48.132;8.518;2022-08-25T06:08:08;3.75;;;3.40;;
20725;SDS011;10524;48.132;8.518;2022-08-25T06:10:34;6.65;;;3.88;;
20725;SDS011;10524;48.132;8.518;2022-08-25T06:13:00;4.50;;;4.10;;
20725;SDS011;10524;48.132;8.518;2022-08-25T06:15:26;5.13;;;3.75;;
20725;SDS011;10524;48.132;8.518;2022-08-25T06:17:52;6.97;;;3.47;;
20725;SDS011;10524;48.132;8.518;2022-08-25T06:20:20;4.88;;;3.90;;
20725;SDS011;10524;48.132;8.518;2022-08-25T06:22:47;4.35;;;3.90;;
20725;SDS011;10524;48.132;8.518;2022-08-25T06:25:14;4.00;;;3.60;;
20725;SDS011;10524;48.132;8.518;2022-08-25T06:27:41;5.32;;;3.60;;
20725;SDS011;10524;48.132;8.518;2022-08-25T06:30:08;4.90;;;3.45;;
20725;SDS011;10524;48.132;8.518;2022-08-25T06:32:37;3.70;;;2.72;;
20725;SDS011;10524;48.132;8.518;2022-08-25T06:35:05;3.50;;;2.90;;
20725;SDS011;10524;48.132;8.518;2022-08-25T06:37:33;4.00;;;2.88;;
20725;SDS011;10524;48.132;8.518;2022-08-25T06:39:59;4.30;;;2.65;;
20725;SDS011;10524;48.132;8.518;2022-08-25T06:42:24;2.78;;;2.58;;
20725;SDS011;10524;48.132;8.518;2022-08-25T06:44:50;2.85;;;2.63;;
20725;SDS011;10524;48.132;8.518;2022-08-25T06:47:16;2.85;;;2.47;;
20725;SDS011;10524;48.132;8.518;2022-08-25T06:49:42;2.88;;;2.63;;
20725;SDS011;10524;48.132;8.518;2022-08-25T06:52:09;4.55;;;2.42;;
20725;SDS011;10524;48.132;8.518;2022-08-25T06:54:35;2.95;;;2.65;;
20725;SDS011;10524;48.132;8.518;2022-08-25T06:57:01;2.20;;;2.00;;
20725;SDS011;10524;48.132;8.518;2022-08-25T06:59:27;5.10;;;2.85;;
20725;SDS011;10524;48.132;8.518;2022-08-25T07:01:53;4.78;;;2.92;;
20725;SDS011;10524;48.132;8.518;2022-08-25T07:04:19;4.35;;;3.20;;
20725;SDS011;10524;48.132;8.518;2022-08-25T07:06:45;2.60;;;2.40;;
20725;SDS011;10524;48.132;8.518;2022-08-25T07:09:11;2.60;;;2.40;;
20725;SDS011;10524;48.132;8.518;2022-08-25T07:11:40;3.13;;;2.83;;
20725;SDS011;10524;48.132;8.518;2022-08-25T07:14:07;3.13;;;2.83;;
20725;SDS011;10524;48.132;8.518;2022-08-25T07:16:36;3.88;;;2.70;;
20725;SDS011;10524;48.132;8.518;2022-08-25T07:19:02;3.65;;;2.30;;
20725;SDS011;10524;48.132;8.518;2022-08-25T07:21:29;3.15;;;2.88;;
20725;SDS011;10524;48.132;8.518;2022-08-25T07:23:56;2.80;;;2.50;;
20725;SDS011;10524;48.132;8.518;2022-08-25T07:26:25;4.38;;;2.58;;
20725;SDS011;10524;48.132;8.518;2022-08-25T07:28:53;3.65;;;2.72;;
20725;SDS011;10524;48.132;8.518;2022-08-25T07:31:18;4.55;;;3.00;;
20725;SDS011;10524;48.132;8.518;2022-08-25T07:33:44;3.55;;;2.85;;
20725;SDS011;10524;48.132;8.518;2022-08-25T07:36:29;5.75;;;2.50;;
20725;SDS011;10524;48.132;8.518;2022-08-25T07:38:56;3.42;;;2.42;;
20725;SDS011;10524;48.132;8.518;2022-08-25T07:41:22;3.10;;;2.80;;
20725;SDS011;10524;48.132;8.518;2022-08-25T07:43:48;5.13;;;2.95;;
20725;SDS011;10524;48.132;8.518;2022-08-25T07:46:14;2.88;;;2.50;;
20725;SDS011;10524;48.132;8.518;2022-08-25T07:48:39;3.42;;;2.70;;
20725;SDS011;10524;48.132;8.518;2022-08-25T07:51:09;4.00;;;3.10;;
20725;SDS011;10524;48.132;8.518;2022-08-25T07:53:38;3.97;;;2.60;;
20725;SDS011;10524;48.132;8.518;2022-08-25T07:56:12;3.47;;;2.40;;
20725;SDS011;10524;48.132;8.518;2022-08-25T07:58:39;4.68;;;2.88;;
20725;SDS011;10524;48.132;8.518;2022-08-25T08:01:06;4.22;;;2.60;;
20725;SDS011;10524;48.132;8.518;2022-08-25T08:03:37;3.22;;;2.80;;
20725;SDS011;10524;48.132;8.518;2022-08-25T08:06:06;3.47;;;3.17;;
20725;SDS011;10524;48.132;8.518;2022-08-25T08:08:35;3.17;;;2.88;;
20725;SDS011;10524;48.132;8.518;2022-08-25T08:11:10;4.03;;;2.60;;
20725;SDS011;10524;48.132;8.518;2022-08-25T08:13:59;3.53;;;2.80;;
20725;SDS011;10524;48.132;8.518;2022-08-25T08:16:26;2.78;;;2.58;;
20725;SDS011;10524;48.132;8.518;2022-08-25T08:18:54;3.17;;;2.83;;
20725;SDS011;10524;48.132;8.518;2022-08-25T08:21:21;3.58;;;2.70;;
20725;SDS011;10524;48.132;8.518;2022-08-25T08:23:50;2.33;;;2.13;;
20725;SDS011;10524;48.132;8.518;2022-08-25T08:26:17;2.55;;;2.35;;
20725;SDS011;10524;48.132;8.518;2022-08-25T08:28:43;2.38;;;2.13;;
20725;SDS011;10524;48.132;8.518;2022-08-25T08:31:09;2.50;;;2.30;;
20725;SDS011;10524;48.132;8.518;2022-08-25T08:33:36;2.70;;;2.50;;
20725;SDS011;10524;48.132;8.518;2022-08-25T08:36:06;2.63;;;2.42;;
20725;SDS011;10524;48.132;8.518;2022-08-25T08:38:35;3.42;;;2.50;;
20725;SDS011;10524;48.132;8.518;2022-08-25T08:44:11;3.63;;;2.22;;
20725;SDS011;10524;48.132;8.518;2022-08-25T08:46:58;2.60;;;2.40;;
20725;SDS011;10524;48.132;8.518;2022-08-25T08:52:10;4.88;;;2.53;;
20725;SDS011;10524;48.132;8.518;2022-08-25T08:54:40;2.60;;;2.40;;
20725;SDS011;10524;48.132;8.518;2022-08-25T08:59:48;3.53;;;2.50;;
20725;SDS011;10524;48.132;8.518;2022-08-25T09:02:27;3.83;;;2.50;;
20725;SDS011;10524;48.132;8.518;2022-08-25T09:05:03;3.05;;;2.28;;
20725;SDS011;10524;48.132;8.518;2022-08-25T09:07:45;3.30;;;2.60;;
20725;SDS011;10524;48.132;8.518;2022-08-25T09:10:17;3.63;;;2.28;;
20725;SDS011;10524;48.132;8.518;2022-08-25T09:15:16;2.95;;;2.20;;
20725;SDS011;10524;48.132;8.518;2022-08-25T09:24:11;2.40;;;2.00;;
20725;SDS011;10524;48.132;8.518;2022-08-25T09:26:44;3.10;;;2.20;;
20725;SDS011;10524;48.132;8.518;2022-08-25T09:29:23;2.63;;;2.10;;
20725;SDS011;10524;48.132;8.518;2022-08-25T09:31:51;2.95;;;2.20;;
20725;SDS011;10524;48.132;8.518;2022-08-25T09:34:22;3.50;;;2.03;;
20725;SDS011;10524;48.132;8.518;2022-08-25T09:36:52;2.92;;;2.00;;
20725;SDS011;10524;48.132;8.518;2022-08-25T09:39:18;3.88;;;2.05;;
20725;SDS011;10524;48.132;8.518;2022-08-25T09:41:48;2.20;;;1.95;;
20725;SDS011;10524;48.132;8.518;2022-08-25T09:44:21;3.30;;;2.00;;
20725;SDS011;10524;48.132;8.518;2022-08-25T09:49:45;2.60;;;1.92;;
20725;SDS011;10524;48.132;8.518;2022-08-25T09:55:09;3.00;;;2.13;;
20725;SDS011;10524;48.132;8.518;2022-08-25T09:57:53;2.22;;;1.85;;
20725;SDS011;10524;48.132;8.518;2022-08-25T10:00:25;2.10;;;1.83;;
20725;SDS011;10524;48.132;8.518;2022-08-25T10:03:10;3.10;;;1.70;;
20725;SDS011;10524;48.132;8.518;2022-08-25T10:11:05;2.67;;;1.80;;
20725;SDS011;10524;48.132;8.518;2022-08-25T10:13:43;1.80;;;1.70;;
20725;SDS011;10524;48.132;8.518;2022-08-25T10:16:24;2.40;;;1.60;;
20725;SDS011;10524;48.132;8.518;2022-08-25T10:21:28;2.33;;;1.42;;
20725;SDS011;10524;48.132;8.518;2022-08-25T10:23:54;3.17;;;1.80;;
20725;SDS011;10524;48.132;8.518;2022-08-25T10:39:45;3.33;;;1.80;;
20725;SDS011;10524;48.132;8.518;2022-08-25T10:42:37;2.38;;;1.50;;
20725;SDS011;10524;48.132;8.518;2022-08-25T10:45:10;2.63;;;1.60;;
20725;SDS011;10524;48.132;8.518;2022-08-25T10:51:00;2.33;;;1.70;;
20725;SDS011;10524;48.132;8.518;2022-08-25T10:56:08;2.00;;;1.77;;
20725;SDS011;10524;48.132;8.518;2022-08-25T11:04:42;2.15;;;1.95;;
20725;SDS011;10524;48.132;8.518;2022-08-25T11:09:59;2.75;;;1.70;;
20725;SDS011;10524;48.132;8.518;2022-08-25T11:12:34;2.38;;;1.73;;
20725;SDS011;10524;48.132;8.518;2022-08-25T11:15:09;2.13;;;1.60;;
20725;SDS011;10524;48.132;8.518;2022-08-25T11:20:26;1.73;;;1.63;;
20725;SDS011;10524;48.132;8.518;2022-08-25T11:25:49;2.72;;;1.55;;
20725;SDS011;10524;48.132;8.518;2022-08-25T11:28:29;3.33;;;1.55;;
20725;SDS011;10524;48.132;8.518;2022-08-25T11:31:14;2.83;;;1.70;;
20725;SDS011;10524;48.132;8.518;2022-08-25T11:33:43;1.70;;;1.60;;
20725;SDS011;10524;48.132;8.518;2022-08-25T11:36:11;3.65;;;1.67;;
20725;SDS011;10524;48.132;8.518;2022-08-25T11:54:23;2.05;;;1.80;;
20725;SDS011;10524;48.132;8.518;2022-08-25T11:57:00;4.13;;;1.52;;
20725;SDS011;10524;48.132;8.518;2022-08-25T12:05:07;1.80;;;1.70;;
20725;SDS011;10524;48.132;8.518;2022-08-25T12:10:12;2.28;;;1.70;;
20725;SDS011;10524;48.132;8.518;2022-08-25T12:15:24;2.63;;;1.50;;
20725;SDS011;10524;48.132;8.518;2022-08-25T12:23:28;1.77;;;1.52;;
20725;SDS011;10524;48.132;8.518;2022-08-25T12:25:57;2.03;;;1.60;;
20725;SDS011;10524;48.132;8.518;2022-08-25T12:31:30;1.73;;;1.60;;
20725;SDS011;10524;48.132;8.518;2022-08-25T12:37:04;2.05;;;1.55;;
20725;SDS011;10524;48.132;8.518;2022-08-25T12:47:44;2.28;;;1.60;;
20725;SDS011;10524;48.132;8.518;2022-08-25T12:53:11;2.20;;;1.92;;
20725;SDS011;10524;48.132;8.518;2022-08-25T12:55:56;3.78;;;1.90;;
20725;SDS011;10524;48.132;8.518;2022-08-25T12:58:27;2.50;;;1.88;;
20725;SDS011;10524;48.132;8.518;2022-08-25T13:01:14;2.38;;;1.70;;
20725;SDS011;10524;48.132;8.518;2022-08-25T13:15:33;2.47;;;1.60;;
20725;SDS011;10524;48.132;8.518;2022-08-25T13:18:22;2.47;;;1.60;;
20725;SDS011;10524;48.132;8.518;2022-08-25T13:21:00;1.85;;;1.40;;
20725;SDS011;10524;48.132;8.518;2022-08-25T13:23:39;2.38;;;1.67;;
20725;SDS011;10524;48.132;8.518;2022-08-25T13:26:08;4.38;;;1.60;;
20725;SDS011;10524;48.132;8.518;2022-08-25T13:28:39;1.70;;;1.60;;
20725;SDS011;10524;48.132;8.518;2022-08-25T13:31:07;2.03;;;1.50;;
20725;SDS011;10524;48.132;8.518;2022-08-25T13:33:45;2.33;;;1.45;;
20725;SDS011;10524;48.132;8.518;2022-08-25T13:36:15;2.17;;;1.50;;
20725;SDS011;10524;48.132;8.518;2022-08-25T13:39:08;1.50;;;1.40;;
20725;SDS011;10524;48.132;8.518;2022-08-25T13:41:47;2.25;;;1.40;;
20725;SDS011;10524;48.132;8.518;2022-08-25T13:44:15;4.10;;;1.50;;
20725;SDS011;10524;48.132;8.518;2022-08-25T13:46:42;3.85;;;1.70;;
20725;SDS011;10524;48.132;8.518;2022-08-25T13:49:09;6.63;;;1.73;;
20725;SDS011;10524;48.132;8.518;2022-08-25T13:51:36;2.95;;;1.70;;
20725;SDS011;10524;48.132;8.518;2022-08-25T13:54:06;2.90;;;1.70;;
20725;SDS011;10524;48.132;8.518;2022-08-25T13:56:34;2.42;;;1.50;;
20725;SDS011;10524;48.132;8.518;2022-08-25T13:59:09;5.38;;;1.80;;
20725;SDS011;10524;48.132;8.518;2022-08-25T14:01:55;4.30;;;1.85;;
20725;SDS011;10524;48.132;8.518;2022-08-25T14:04:31;5.35;;;1.83;;
20725;SDS011;10524;48.132;8.518;2022-08-25T14:12:26;3.97;;;1.80;;
20725;SDS011;10524;48.132;8.518;2022-08-25T14:15:03;2.40;;;1.73;;
20725;SDS011;10524;48.132;8.518;2022-08-25T14:17:29;6.63;;;2.20;;
20725;SDS011;10524;48.132;8.518;2022-08-25T14:19:56;2.15;;;1.92;;
20725;SDS011;10524;48.132;8.518;2022-08-25T14:22:22;3.17;;;1.90;;
20725;SDS011;10524;48.132;8.518;2022-08-25T14:24:48;2.83;;;2.20;;
20725;SDS011;10524;48.132;8.518;2022-08-25T14:27:16;2.08;;;1.70;;
20725;SDS011;10524;48.132;8.518;2022-08-25T14:29:43;1.80;;;1.60;;
20725;SDS011;10524;48.132;8.518;2022-08-25T14:32:09;2.22;;;2.00;;
20725;SDS011;10524;48.132;8.518;2022-08-25T14:34:35;1.70;;;1.60;;
20725;SDS011;10524;48.132;8.518;2022-08-25T14:37:11;3.17;;;1.70;;
20725;SDS011;10524;48.132;8.518;2022-08-25T14:39:42;3.33;;;1.60;;
20725;SDS011;10524;48.132;8.518;2022-08-25T14:42:08;1.90;;;1.65;;
20725;SDS011;10524;48.132;8.518;2022-08-25T14:44:34;2.33;;;1.90;;
20725;SDS011;10524;48.132;8.518;2022-08-25T14:47:00;2.15;;;1.65;;
20725;SDS011;10524;48.132;8.518;2022-08-25T14:49:28;1.75;;;1.60;;
20725;SDS011;10524;48.132;8.518;2022-08-25T14:52:00;4.10;;;1.60;;
20725;SDS011;10524;48.132;8.518;2022-08-25T14:54:32;3.80;;;1.70;;
20725;SDS011;10524;48.132;8.518;2022-08-25T14:56:58;3.15;;;2.00;;
20725;SDS011;10524;48.132;8.518;2022-08-25T14:59:23;4.40;;;1.73;;
20725;SDS011;10524;48.132;8.518;2022-08-25T15:01:49;3.90;;;1.63;;
20725;SDS011;10524;48.132;8.518;2022-08-25T15:04:16;3.22;;;1.80;;
20725;SDS011;10524;48.132;8.518;2022-08-25T15:06:45;3.38;;;1.73;;
20725;SDS011;10524;48.132;8.518;2022-08-25T15:09:13;2.90;;;1.48;;
20725;SDS011;10524;48.132;8.518;2022-08-25T15:11:41;4.25;;;1.98;;
20725;SDS011;10524;48.132;8.518;2022-08-25T15:14:09;3.22;;;1.50;;
20725;SDS011;10524;48.132;8.518;2022-08-25T15:16:38;2.38;;;1.95;;
20725;SDS011;10524;48.132;8.518;2022-08-25T15:19:06;3.13;;;1.80;;
20725;SDS011;10524;48.132;8.518;2022-08-25T15:21:34;6.40;;;2.00;;
20725;SDS011;10524;48.132;8.518;2022-08-25T15:24:01;3.53;;;1.90;;
20725;SDS011;10524;48.132;8.518;2022-08-25T15:26:28;1.73;;;1.60;;
20725;SDS011;10524;48.132;8.518;2022-08-25T15:28:53;2.85;;;1.63;;
20725;SDS011;10524;48.132;8.518;2022-08-25T15:31:19;3.70;;;1.77;;
20725;SDS011;10524;48.132;8.518;2022-08-25T15:33:46;3.28;;;1.75;;
20725;SDS011;10524;48.132;8.518;2022-08-25T15:36:13;3.78;;;1.77;;
20725;SDS011;10524;48.132;8.518;2022-08-25T15:38:41;2.05;;;1.80;;
20725;SDS011;10524;48.132;8.518;2022-08-25T15:41:07;2.38;;;1.70;;
20725;SDS011;10524;48.132;8.518;2022-08-25T15:43:34;2.65;;;1.80;;
20725;SDS011;10524;48.132;8.518;2022-08-25T15:46:00;4.90;;;2.15;;
20725;SDS011;10524;48.132;8.518;2022-08-25T15:48:25;2.63;;;2.20;;
20725;SDS011;10524;48.132;8.518;2022-08-25T15:50:55;1.95;;;1.70;;
20725;SDS011;10524;48.132;8.518;2022-08-25T15:53:22;2.50;;;2.00;;
20725;SDS011;10524;48.132;8.518;2022-08-25T15:55:50;2.03;;;1.90;;
20725;SDS011;10524;48.132;8.518;2022-08-25T15:58:16;2.10;;;1.70;;
20725;SDS011;10524;48.132;8.518;2022-08-25T16:00:43;2.88;;;1.90;;
20725;SDS011;10524;48.132;8.518;2022-08-25T16:03:09;1.40;;;1.30;;
20725;SDS011;10524;48.132;8.518;2022-08-25T16:05:36;2.78;;;1.70;;
20725;SDS011;10524;48.132;8.518;2022-08-25T16:08:03;1.88;;;1.77;;
20725;SDS011;10524;48.132;8.518;2022-08-25T16:10:35;2.22;;;1.60;;
20725;SDS011;10524;48.132;8.518;2022-08-25T16:13:03;3.45;;;1.80;;
20725;SDS011;10524;48.132;8.518;2022-08-25T16:15:30;1.73;;;1.63;;
20725;SDS011;10524;48.132;8.518;2022-08-25T16:17:57;1.75;;;1.65;;
20725;SDS011;10524;48.132;8.518;2022-08-25T16:20:24;1.90;;;1.70;;
20725;SDS011;10524;48.132;8.518;2022-08-25T16:22:50;1.90;;;1.67;;
20725;SDS011;10524;48.132;8.518;2022-08-25T16:25:15;1.80;;;1.70;;
20725;SDS011;10524;48.132;8.518;2022-08-25T16:27:41;4.90;;;1.77;;
20725;SDS011;10524;48.132;8.518;2022-08-25T16:30:08;2.88;;;1.80;;
20725;SDS011;10524;48.132;8.518;2022-08-25T16:32:36;1.70;;;1.60;;
20725;SDS011;10524;48.132;8.518;2022-08-25T16:35:04;2.33;;;1.73;;
20725;SDS011;10524;48.132;8.518;2022-08-25T16:37:33;1.90;;;1.67;;
20725;SDS011;10524;48.132;8.518;2022-08-25T16:40:00;2.88;;;1.70;;
20725;SDS011;10524;48.132;8.518;2022-08-25T16:42:26;2.65;;;1.70;;
20725;SDS011;10524;48.132;8.518;2022-08-25T16:44:53;5.47;;;2.47;;
20725;SDS011;10524;48.132;8.518;2022-08-25T16:47:18;2.10;;;1.70;;
20725;SDS011;10524;48.132;8.518;2022-08-25T16:49:45;2.97;;;1.88;;
20725;SDS011;10524;48.132;8.518;2022-08-25T16:52:11;2.10;;;1.90;;
20725;SDS011;10524;48.132;8.518;2022-08-25T16:54:57;4.22;;;2.10;;
20725;SDS011;10524;48.132;8.518;2022-08-25T16:57:38;4.05;;;1.98;;
20725;SDS011;10524;48.132;8.518;2022-08-25T17:00:05;2.75;;;2.22;;
20725;SDS011;10524;48.132;8.518;2022-08-25T17:05:03;2.25;;;2.05;;
20725;SDS011;10524;48.132;8.518;2022-08-25T17:07:32;4.18;;;2.13;;
20725;SDS011;10524;48.132;8.518;2022-08-25T17:09:58;3.35;;;2.20;;
20725;SDS011;10524;48.132;8.518;2022-08-25T17:12:24;4.75;;;2.38;;
20725;SDS011;10524;48.132;8.518;2022-08-25T17:14:50;3.55;;;2.25;;
20725;SDS011;10524;48.132;8.518;2022-08-25T17:17:16;3.67;;;2.30;;